sensor_id;sensor_type;location;lat;lon;timestamp;P1;durP1;ratioP1;P2;durP2;ratioP2
24409;SDS011;12543;53.364;-1.504;2024-01-11T00:01:56;3.75;;;1.45;;
24409;SDS011;12543;53.364;-1.504;2024-01-11T00:04:24;3.55;;;1.35;;
24409;SDS011;12543;53.364;-1.504;2024-01-11T00:09:19;3.22;;;1.48;;
24409;SDS011;12543;53.364;-1.504;2024-01-11T00:11:47;2.00;;;1.27;;
24409;SDS011;12543;53.364;-1.504;2024-01-11T00:14:32;3.40;;;1.13;;
24409;SDS011;12543;53.364;-1.504;2024-01-11T00:16:59;5.73;;;1.50;;
24409;SDS011;12543;53.364;-1.504;2024-01-11T00:19:28;2.40;;;1.20;;
24409;SDS011;12543;53.364;-1.504;2024-01-11T00:21:55;4.03;;;1.37;;
24409;SDS011;12543;53.364;-1.504;2024-01-11T00:24:23;2.38;;;1.15;;
24409;SDS011;12543;53.364;-1.504;2024-01-11T00:26:50;3.67;;;1.25;;
24409;SDS011;12543;53.364;-1.504;2024-01-11T00:29:18;4.25;;;1.20;;
24409;SDS011;12543;53.364;-1.504;2024-01-11T00:31:45;3.87;;;1.20;;
24409;SDS011;12543;53.364;-1.504;2024-01-11T00:34:13;2.08;;;1.05;;
24409;SDS011;12543;53.364;-1.504;2024-01-11T00:36:41;3.57;;;1.30;;
24409;SDS011;12543;53.364;-1.504;2024-01-11T00:39:08;3.30;;;1.17;;
24409;SDS011;12543;53.364;-1.504;2024-01-11T00:41:37;3.90;;;1.50;;
24409;SDS011;12543;53.364;-1.504;2024-01-11T00:44:05;5.57;;;1.50;;
24409;SDS011;12543;53.364;-1.504;2024-01-11T00:46:34;4.40;;;1.10;;
24409;SDS011;12543;53.364;-1.504;2024-01-11T00:49:01;2.60;;;1.33;;
24409;SDS011;12543;53.364;-1.504;2024-01-11T00:51:29;3.83;;;1.23;;
24409;SDS011;12543;53.364;-1.504;2024-01-11T00:53:56;5.20;;;1.48;;
24409;SDS011;12543;53.364;-1.504;2024-01-11T00:56:24;2.83;;;1.10;;
24409;SDS011;12543;53.364;-1.504;2024-01-11T00:58:52;3.05;;;1.20;;
24409;SDS011;12543;53.364;-1.504;2024-01-11T01:01:20;3.08;;;1.20;;
24409;SDS011;12543;53.364;-1.504;2024-01-11T01:03:47;4.53;;;1.20;;
24409;SDS011;12543;53.364;-1.504;2024-01-11T01:06:15;5.70;;;1.35;;
24409;SDS011;12543;53.364;-1.504;2024-01-11T01:08:43;3.35;;;1.30;;
24409;SDS011;12543;53.364;-1.504;2024-01-11T01:11:12;3.50;;;1.77;;
24409;SDS011;12543;53.364;-1.504;2024-01-11T01:13:40;3.97;;;1.50;;
24409;SDS011;12543;53.364;-1.504;2024-01-11T01:16:07;3.45;;;1.45;;
24409;SDS011;12543;53.364;-1.504;2024-01-11T01:18:35;2.58;;;1.17;;
24409;SDS011;12543;53.364;-1.504;2024-01-11T01:21:02;4.85;;;1.20;;
24409;SDS011;12543;53.364;-1.504;2024-01-11T01:23:33;3.78;;;1.17;;
24409;SDS011;12543;53.364;-1.504;2024-01-11T01:26:01;3.83;;;1.05;;
24409;SDS011;12543;53.364;-1.504;2024-01-11T01:28:30;4.00;;;1.40;;
24409;SDS011;12543;53.364;-1.504;2024-01-11T01:30:58;2.05;;;1.00;;
24409;SDS011;12543;53.364;-1.504;2024-01-11T01:33:27;1.25;;;0.70;;
24409;SDS011;12543;53.364;-1.504;2024-01-11T01:35:55;4.30;;;1.17;;
24409;SDS011;12543;53.364;-1.504;2024-01-11T01:38:23;3.15;;;1.20;;
24409;SDS011;12543;53.364;-1.504;2024-01-11T01:40:51;3.25;;;0.90;;
24409;SDS011;12543;53.364;-1.504;2024-01-11T01:43:18;2.83;;;1.00;;
24409;SDS011;12543;53.364;-1.504;2024-01-11T01:45:46;3.38;;;1.27;;
24409;SDS011;12543;53.364;-1.504;2024-01-11T01:48:14;2.95;;;1.02;;
24409;SDS011;12543;53.364;-1.504;2024-01-11T01:50:41;5.73;;;1.47;;
24409;SDS011;12543;53.364;-1.504;2024-01-11T01:53:12;4.35;;;1.30;;
24409;SDS011;12543;53.364;-1.504;2024-01-11T01:55:40;4.45;;;1.27;;
24409;SDS011;12543;53.364;-1.504;2024-01-11T01:58:07;4.45;;;1.20;;
24409;SDS011;12543;53.364;-1.504;2024-01-11T02:00:34;2.88;;;0.90;;
24409;SDS011;12543;53.364;-1.504;2024-01-11T02:03:02;5.68;;;1.13;;
24409;SDS011;12543;53.364;-1.504;2024-01-11T02:05:30;4.00;;;1.42;;
24409;SDS011;12543;53.364;-1.504;2024-01-11T02:07:58;3.80;;;1.20;;
24409;SDS011;12543;53.364;-1.504;2024-01-11T02:10:27;4.10;;;0.98;;
24409;SDS011;12543;53.364;-1.504;2024-01-11T02:12:55;2.38;;;1.00;;
24409;SDS011;12543;53.364;-1.504;2024-01-11T02:15:22;4.13;;;1.85;;
24409;SDS011;12543;53.364;-1.504;2024-01-11T02:17:50;2.75;;;1.13;;
24409;SDS011;12543;53.364;-1.504;2024-01-11T02:20:17;2.90;;;1.35;;
24409;SDS011;12543;53.364;-1.504;2024-01-11T02:22:50;1.65;;;0.80;;
24409;SDS011;12543;53.364;-1.504;2024-01-11T02:25:19;4.20;;;1.05;;
24409;SDS011;12543;53.364;-1.504;2024-01-11T02:27:50;2.92;;;1.10;;
24409;SDS011;12543;53.364;-1.504;2024-01-11T02:30:18;3.97;;;1.00;;
24409;SDS011;12543;53.364;-1.504;2024-01-11T02:32:46;1.73;;;0.93;;
24409;SDS011;12543;53.364;-1.504;2024-01-11T02:35:15;3.15;;;1.10;;
24409;SDS011;12543;53.364;-1.504;2024-01-11T02:37:43;2.80;;;1.02;;
24409;SDS011;12543;53.364;-1.504;2024-01-11T02:40:10;3.30;;;0.85;;
24409;SDS011;12543;53.364;-1.504;2024-01-11T02:42:40;2.55;;;1.02;;
24409;SDS011;12543;53.364;-1.504;2024-01-11T02:45:07;4.15;;;0.98;;
24409;SDS011;12543;53.364;-1.504;2024-01-11T02:47:35;1.80;;;0.73;;
24409;SDS011;12543;53.364;-1.504;2024-01-11T02:50:02;4.03;;;1.25;;
24409;SDS011;12543;53.364;-1.504;2024-01-11T02:52:30;3.17;;;0.90;;
24409;SDS011;12543;53.364;-1.504;2024-01-11T02:54:58;3.20;;;1.02;;
24409;SDS011;12543;53.364;-1.504;2024-01-11T02:57:25;3.03;;;0.90;;
24409;SDS011;12543;53.364;-1.504;2024-01-11T02:59:53;1.90;;;0.80;;
24409;SDS011;12543;53.364;-1.504;2024-01-11T03:02:20;2.47;;;0.90;;
24409;SDS011;12543;53.364;-1.504;2024-01-11T03:04:48;4.55;;;0.88;;
24409;SDS011;12543;53.364;-1.504;2024-01-11T03:07:15;3.83;;;1.15;;
24409;SDS011;12543;53.364;-1.504;2024-01-11T03:09:44;2.03;;;0.80;;
24409;SDS011;12543;53.364;-1.504;2024-01-11T03:12:12;3.30;;;0.98;;
24409;SDS011;12543;53.364;-1.504;2024-01-11T03:14:39;2.25;;;0.90;;
24409;SDS011;12543;53.364;-1.504;2024-01-11T03:17:07;3.53;;;1.17;;
24409;SDS011;12543;53.364;-1.504;2024-01-11T03:19:38;2.65;;;0.95;;
24409;SDS011;12543;53.364;-1.504;2024-01-11T03:22:06;5.10;;;0.88;;
24409;SDS011;12543;53.364;-1.504;2024-01-11T03:24:37;7.20;;;1.50;;
24409;SDS011;12543;53.364;-1.504;2024-01-11T03:27:05;2.53;;;1.00;;
24409;SDS011;12543;53.364;-1.504;2024-01-11T03:29:33;2.50;;;1.13;;
24409;SDS011;12543;53.364;-1.504;2024-01-11T03:32:00;4.77;;;0.90;;
24409;SDS011;12543;53.364;-1.504;2024-01-11T03:34:28;2.88;;;1.00;;
24409;SDS011;12543;53.364;-1.504;2024-01-11T03:36:56;3.03;;;1.00;;
24409;SDS011;12543;53.364;-1.504;2024-01-11T03:39:24;3.08;;;0.90;;
24409;SDS011;12543;53.364;-1.504;2024-01-11T03:41:52;4.03;;;0.90;;
24409;SDS011;12543;53.364;-1.504;2024-01-11T03:44:20;1.57;;;0.80;;
24409;SDS011;12543;53.364;-1.504;2024-01-11T03:46:47;2.17;;;0.83;;
24409;SDS011;12543;53.364;-1.504;2024-01-11T03:49:15;2.95;;;1.00;;
24409;SDS011;12543;53.364;-1.504;2024-01-11T03:51:42;1.02;;;0.70;;
24409;SDS011;12543;53.364;-1.504;2024-01-11T03:54:10;3.83;;;0.95;;
24409;SDS011;12543;53.364;-1.504;2024-01-11T03:56:39;3.67;;;0.90;;
24409;SDS011;12543;53.364;-1.504;2024-01-11T03:59:07;3.80;;;1.20;;
24409;SDS011;12543;53.364;-1.504;2024-01-11T04:01:38;3.03;;;1.20;;
24409;SDS011;12543;53.364;-1.504;2024-01-11T04:04:06;5.90;;;1.20;;
24409;SDS011;12543;53.364;-1.504;2024-01-11T04:06:33;3.33;;;1.15;;
24409;SDS011;12543;53.364;-1.504;2024-01-11T04:09:01;2.45;;;1.00;;
24409;SDS011;12543;53.364;-1.504;2024-01-11T04:11:31;4.75;;;1.65;;
24409;SDS011;12543;53.364;-1.504;2024-01-11T04:13:59;3.08;;;1.30;;
24409;SDS011;12543;53.364;-1.504;2024-01-11T04:16:27;4.05;;;1.20;;
24409;SDS011;12543;53.364;-1.504;2024-01-11T04:18:54;3.30;;;1.73;;
24409;SDS011;12543;53.364;-1.504;2024-01-11T04:21:26;3.22;;;1.20;;
24409;SDS011;12543;53.364;-1.504;2024-01-11T04:23:56;1.70;;;1.27;;
24409;SDS011;12543;53.364;-1.504;2024-01-11T04:26:24;3.55;;;1.23;;
24409;SDS011;12543;53.364;-1.504;2024-01-11T04:28:52;2.08;;;1.13;;
24409;SDS011;12543;53.364;-1.504;2024-01-11T04:31:23;2.83;;;1.30;;
24409;SDS011;12543;53.364;-1.504;2024-01-11T04:33:51;2.30;;;1.23;;
24409;SDS011;12543;53.364;-1.504;2024-01-11T04:36:18;2.92;;;1.38;;
24409;SDS011;12543;53.364;-1.504;2024-01-11T04:38:46;2.83;;;1.40;;
24409;SDS011;12543;53.364;-1.504;2024-01-11T04:41:14;2.20;;;1.23;;
24409;SDS011;12543;53.364;-1.504;2024-01-11T04:43:42;2.22;;;1.20;;
24409;SDS011;12543;53.364;-1.504;2024-01-11T04:48:44;6.38;;;1.33;;
24409;SDS011;12543;53.364;-1.504;2024-01-11T04:51:13;3.10;;;1.30;;
24409;SDS011;12543;53.364;-1.504;2024-01-11T04:56:09;4.10;;;1.48;;
24409;SDS011;12543;53.364;-1.504;2024-01-11T04:58:40;2.42;;;1.10;;
24409;SDS011;12543;53.364;-1.504;2024-01-11T05:01:11;1.60;;;1.25;;
24409;SDS011;12543;53.364;-1.504;2024-01-11T05:03:41;2.38;;;1.10;;
24409;SDS011;12543;53.364;-1.504;2024-01-11T05:06:08;1.50;;;1.40;;
24409;SDS011;12543;53.364;-1.504;2024-01-11T05:08:40;1.35;;;1.25;;
24409;SDS011;12543;53.364;-1.504;2024-01-11T05:11:14;2.15;;;1.40;;
24409;SDS011;12543;53.364;-1.504;2024-01-11T05:13:41;1.38;;;1.27;;
24409;SDS011;12543;53.364;-1.504;2024-01-11T05:16:19;2.40;;;1.15;;
24409;SDS011;12543;53.364;-1.504;2024-01-11T05:18:47;1.98;;;1.30;;
24409;SDS011;12543;53.364;-1.504;2024-01-11T05:21:14;1.95;;;1.30;;
24409;SDS011;12543;53.364;-1.504;2024-01-11T05:23:42;2.87;;;1.37;;
24409;SDS011;12543;53.364;-1.504;2024-01-11T05:26:10;1.38;;;1.27;;
24409;SDS011;12543;53.364;-1.504;2024-01-11T05:28:39;2.55;;;1.30;;
24409;SDS011;12543;53.364;-1.504;2024-01-11T05:31:07;2.22;;;1.00;;
24409;SDS011;12543;53.364;-1.504;2024-01-11T05:33:35;2.13;;;1.10;;
24409;SDS011;12543;53.364;-1.504;2024-01-11T05:36:02;2.03;;;1.03;;
24409;SDS011;12543;53.364;-1.504;2024-01-11T05:38:30;1.17;;;0.90;;
24409;SDS011;12543;53.364;-1.504;2024-01-11T05:40:58;1.57;;;0.97;;
24409;SDS011;12543;53.364;-1.504;2024-01-11T05:43:25;1.13;;;0.95;;
24409;SDS011;12543;53.364;-1.504;2024-01-11T05:45:53;2.58;;;1.10;;
24409;SDS011;12543;53.364;-1.504;2024-01-11T05:48:20;2.72;;;1.10;;
24409;SDS011;12543;53.364;-1.504;2024-01-11T05:50:48;1.83;;;1.17;;
24409;SDS011;12543;53.364;-1.504;2024-01-11T05:53:15;2.25;;;1.30;;
24409;SDS011;12543;53.364;-1.504;2024-01-11T05:55:47;1.63;;;1.38;;
24409;SDS011;12543;53.364;-1.504;2024-01-11T05:58:17;2.00;;;1.40;;
24409;SDS011;12543;53.364;-1.504;2024-01-11T06:00:45;1.83;;;1.30;;
24409;SDS011;12543;53.364;-1.504;2024-01-11T06:03:13;3.25;;;1.42;;
24409;SDS011;12543;53.364;-1.504;2024-01-11T06:05:40;3.20;;;1.45;;
24409;SDS011;12543;53.364;-1.504;2024-01-11T06:08:08;2.53;;;1.48;;
24409;SDS011;12543;53.364;-1.504;2024-01-11T06:10:36;3.35;;;1.45;;
24409;SDS011;12543;53.364;-1.504;2024-01-11T06:13:04;3.08;;;1.33;;
24409;SDS011;12543;53.364;-1.504;2024-01-11T06:15:31;3.55;;;1.42;;
24409;SDS011;12543;53.364;-1.504;2024-01-11T06:17:59;2.28;;;1.50;;
24409;SDS011;12543;53.364;-1.504;2024-01-11T06:20:26;3.03;;;1.70;;
24409;SDS011;12543;53.364;-1.504;2024-01-11T06:22:54;1.55;;;1.42;;
24409;SDS011;12543;53.364;-1.504;2024-01-11T06:25:21;2.50;;;1.63;;
24409;SDS011;12543;53.364;-1.504;2024-01-11T06:27:49;2.65;;;1.98;;
24409;SDS011;12543;53.364;-1.504;2024-01-11T06:30:16;1.80;;;1.60;;
24409;SDS011;12543;53.364;-1.504;2024-01-11T06:32:44;3.40;;;1.80;;
24409;SDS011;12543;53.364;-1.504;2024-01-11T06:35:12;2.20;;;1.52;;
24409;SDS011;12543;53.364;-1.504;2024-01-11T06:37:39;4.93;;;1.53;;
24409;SDS011;12543;53.364;-1.504;2024-01-11T06:40:07;2.22;;;1.80;;
24409;SDS011;12543;53.364;-1.504;2024-01-11T06:42:35;3.35;;;2.00;;
24409;SDS011;12543;53.364;-1.504;2024-01-11T06:45:03;3.90;;;1.70;;
24409;SDS011;12543;53.364;-1.504;2024-01-11T06:47:31;1.73;;;1.20;;
24409;SDS011;12543;53.364;-1.504;2024-01-11T06:49:58;2.63;;;1.75;;
24409;SDS011;12543;53.364;-1.504;2024-01-11T06:52:26;1.85;;;1.17;;
24409;SDS011;12543;53.364;-1.504;2024-01-11T06:54:53;1.30;;;1.20;;
24409;SDS011;12543;53.364;-1.504;2024-01-11T06:57:21;1.70;;;1.60;;
24409;SDS011;12543;53.364;-1.504;2024-01-11T06:59:49;2.37;;;1.20;;
24409;SDS011;12543;53.364;-1.504;2024-01-11T07:02:17;3.08;;;1.60;;
24409;SDS011;12543;53.364;-1.504;2024-01-11T07:04:44;2.38;;;1.15;;
24409;SDS011;12543;53.364;-1.504;2024-01-11T07:07:12;2.33;;;1.10;;
24409;SDS011;12543;53.364;-1.504;2024-01-11T07:09:40;3.55;;;0.90;;
24409;SDS011;12543;53.364;-1.504;2024-01-11T07:12:07;3.20;;;1.02;;
24409;SDS011;12543;53.364;-1.504;2024-01-11T07:14:35;2.50;;;1.23;;
24409;SDS011;12543;53.364;-1.504;2024-01-11T07:17:03;3.90;;;1.00;;
24409;SDS011;12543;53.364;-1.504;2024-01-11T07:19:31;1.63;;;0.90;;
24409;SDS011;12543;53.364;-1.504;2024-01-11T07:21:59;3.55;;;1.35;;
24409;SDS011;12543;53.364;-1.504;2024-01-11T07:24:26;2.15;;;1.10;;
24409;SDS011;12543;53.364;-1.504;2024-01-11T07:26:56;2.75;;;1.23;;
24409;SDS011;12543;53.364;-1.504;2024-01-11T07:29:23;2.05;;;0.98;;
24409;SDS011;12543;53.364;-1.504;2024-01-11T07:31:51;2.55;;;1.10;;
24409;SDS011;12543;53.364;-1.504;2024-01-11T07:34:18;2.25;;;0.77;;
24409;SDS011;12543;53.364;-1.504;2024-01-11T07:36:46;5.50;;;1.00;;
24409;SDS011;12543;53.364;-1.504;2024-01-11T07:39:13;1.02;;;0.80;;
24409;SDS011;12543;53.364;-1.504;2024-01-11T07:41:41;3.28;;;1.00;;
24409;SDS011;12543;53.364;-1.504;2024-01-11T07:44:08;1.93;;;1.00;;
24409;SDS011;12543;53.364;-1.504;2024-01-11T07:46:36;4.57;;;1.77;;
24409;SDS011;12543;53.364;-1.504;2024-01-11T07:49:15;3.70;;;1.70;;
24409;SDS011;12543;53.364;-1.504;2024-01-11T07:51:43;3.55;;;1.70;;
24409;SDS011;12543;53.364;-1.504;2024-01-11T07:54:10;2.42;;;1.40;;
24409;SDS011;12543;53.364;-1.504;2024-01-11T07:59:07;4.57;;;1.80;;
24409;SDS011;12543;53.364;-1.504;2024-01-11T08:01:34;6.40;;;2.17;;
24409;SDS011;12543;53.364;-1.504;2024-01-11T08:04:02;4.40;;;1.80;;
24409;SDS011;12543;53.364;-1.504;2024-01-11T08:06:30;3.40;;;1.70;;
24409;SDS011;12543;53.364;-1.504;2024-01-11T08:08:58;3.15;;;1.60;;
24409;SDS011;12543;53.364;-1.504;2024-01-11T08:11:26;3.83;;;1.50;;
24409;SDS011;12543;53.364;-1.504;2024-01-11T08:13:57;3.42;;;1.50;;
24409;SDS011;12543;53.364;-1.504;2024-01-11T08:16:25;1.50;;;1.40;;
24409;SDS011;12543;53.364;-1.504;2024-01-11T08:18:52;3.17;;;1.25;;
24409;SDS011;12543;53.364;-1.504;2024-01-11T08:21:20;3.45;;;1.60;;
24409;SDS011;12543;53.364;-1.504;2024-01-11T08:23:48;2.23;;;1.10;;
24409;SDS011;12543;53.364;-1.504;2024-01-11T08:26:16;1.43;;;1.33;;
24409;SDS011;12543;53.364;-1.504;2024-01-11T08:28:48;5.47;;;1.92;;
24409;SDS011;12543;53.364;-1.504;2024-01-11T08:31:15;2.70;;;1.35;;
24409;SDS011;12543;53.364;-1.504;2024-01-11T08:33:43;3.03;;;1.27;;
24409;SDS011;12543;53.364;-1.504;2024-01-11T08:36:10;2.30;;;1.80;;
24409;SDS011;12543;53.364;-1.504;2024-01-11T08:38:39;3.15;;;1.67;;
24409;SDS011;12543;53.364;-1.504;2024-01-11T08:41:07;2.63;;;1.55;;
24409;SDS011;12543;53.364;-1.504;2024-01-11T08:43:34;2.17;;;1.70;;
24409;SDS011;12543;53.364;-1.504;2024-01-11T08:46:02;2.63;;;1.73;;
24409;SDS011;12543;53.364;-1.504;2024-01-11T08:48:33;4.95;;;1.90;;
24409;SDS011;12543;53.364;-1.504;2024-01-11T08:51:01;3.55;;;1.88;;
24409;SDS011;12543;53.364;-1.504;2024-01-11T08:53:28;2.95;;;1.90;;
24409;SDS011;12543;53.364;-1.504;2024-01-11T08:55:56;2.90;;;1.67;;
24409;SDS011;12543;53.364;-1.504;2024-01-11T08:58:23;5.00;;;1.90;;
24409;SDS011;12543;53.364;-1.504;2024-01-11T09:00:50;3.70;;;1.80;;
24409;SDS011;12543;53.364;-1.504;2024-01-11T09:03:18;3.57;;;1.70;;
24409;SDS011;12543;53.364;-1.504;2024-01-11T09:05:45;4.20;;;1.98;;
24409;SDS011;12543;53.364;-1.504;2024-01-11T09:08:13;2.35;;;1.60;;
24409;SDS011;12543;53.364;-1.504;2024-01-11T09:10:41;3.53;;;1.65;;
24409;SDS011;12543;53.364;-1.504;2024-01-11T09:13:08;3.07;;;1.73;;
24409;SDS011;12543;53.364;-1.504;2024-01-11T09:15:40;2.95;;;1.80;;
24409;SDS011;12543;53.364;-1.504;2024-01-11T09:18:07;4.53;;;1.80;;
24409;SDS011;12543;53.364;-1.504;2024-01-11T09:20:35;2.55;;;1.60;;
24409;SDS011;12543;53.364;-1.504;2024-01-11T09:23:03;4.07;;;1.73;;
24409;SDS011;12543;53.364;-1.504;2024-01-11T09:25:31;2.53;;;1.75;;
24409;SDS011;12543;53.364;-1.504;2024-01-11T09:27:59;3.22;;;1.60;;
24409;SDS011;12543;53.364;-1.504;2024-01-11T09:30:26;2.70;;;1.80;;
24409;SDS011;12543;53.364;-1.504;2024-01-11T09:32:54;3.17;;;1.85;;
24409;SDS011;12543;53.364;-1.504;2024-01-11T09:35:22;2.10;;;1.83;;
24409;SDS011;12543;53.364;-1.504;2024-01-11T09:37:50;1.90;;;1.80;;
24409;SDS011;12543;53.364;-1.504;2024-01-11T09:40:18;3.10;;;2.05;;
24409;SDS011;12543;53.364;-1.504;2024-01-11T09:42:46;4.43;;;2.20;;
24409;SDS011;12543;53.364;-1.504;2024-01-11T09:45:13;4.13;;;1.98;;
24409;SDS011;12543;53.364;-1.504;2024-01-11T09:47:44;3.28;;;2.30;;
24409;SDS011;12543;53.364;-1.504;2024-01-11T09:50:14;2.80;;;2.60;;
24409;SDS011;12543;53.364;-1.504;2024-01-11T09:52:48;2.58;;;2.28;;
24409;SDS011;12543;53.364;-1.504;2024-01-11T09:55:17;3.33;;;2.40;;
24409;SDS011;12543;53.364;-1.504;2024-01-11T09:57:45;3.92;;;2.40;;
24409;SDS011;12543;53.364;-1.504;2024-01-11T10:00:16;3.40;;;2.33;;
24409;SDS011;12543;53.364;-1.504;2024-01-11T10:02:45;4.15;;;2.50;;
24409;SDS011;12543;53.364;-1.504;2024-01-11T10:05:13;3.53;;;2.30;;
24409;SDS011;12543;53.364;-1.504;2024-01-11T10:07:41;4.55;;;2.63;;
24409;SDS011;12543;53.364;-1.504;2024-01-11T10:10:09;4.60;;;2.60;;
24409;SDS011;12543;53.364;-1.504;2024-01-11T10:12:37;4.75;;;2.55;;
24409;SDS011;12543;53.364;-1.504;2024-01-11T10:15:05;2.92;;;2.20;;
24409;SDS011;12543;53.364;-1.504;2024-01-11T10:17:41;3.30;;;2.33;;
24409;SDS011;12543;53.364;-1.504;2024-01-11T10:20:12;3.90;;;2.63;;
24409;SDS011;12543;53.364;-1.504;2024-01-11T10:22:41;4.57;;;2.83;;
24409;SDS011;12543;53.364;-1.504;2024-01-11T10:25:13;3.67;;;2.30;;
24409;SDS011;12543;53.364;-1.504;2024-01-11T10:27:42;5.22;;;2.85;;
24409;SDS011;12543;53.364;-1.504;2024-01-11T10:30:10;6.03;;;3.22;;
24409;SDS011;12543;53.364;-1.504;2024-01-11T10:32:46;5.78;;;3.10;;
24409;SDS011;12543;53.364;-1.504;2024-01-11T10:35:15;5.50;;;2.92;;
24409;SDS011;12543;53.364;-1.504;2024-01-11T10:37:49;5.32;;;2.85;;
24409;SDS011;12543;53.364;-1.504;2024-01-11T10:40:20;5.68;;;2.47;;
24409;SDS011;12543;53.364;-1.504;2024-01-11T10:42:51;5.00;;;3.15;;
24409;SDS011;12543;53.364;-1.504;2024-01-11T10:45:19;4.95;;;2.85;;
24409;SDS011;12543;53.364;-1.504;2024-01-11T10:47:53;6.47;;;2.90;;
24409;SDS011;12543;53.364;-1.504;2024-01-11T10:50:22;7.93;;;3.13;;
24409;SDS011;12543;53.364;-1.504;2024-01-11T10:53:02;7.88;;;2.92;;
24409;SDS011;12543;53.364;-1.504;2024-01-11T10:55:31;8.40;;;3.25;;
24409;SDS011;12543;53.364;-1.504;2024-01-11T10:57:59;6.90;;;2.85;;
24409;SDS011;12543;53.364;-1.504;2024-01-11T11:00:31;4.10;;;2.50;;
24409;SDS011;12543;53.364;-1.504;2024-01-11T11:02:59;7.97;;;2.92;;
24409;SDS011;12543;53.364;-1.504;2024-01-11T11:05:28;6.43;;;3.00;;
24409;SDS011;12543;53.364;-1.504;2024-01-11T11:07:57;4.93;;;2.67;;
24409;SDS011;12543;53.364;-1.504;2024-01-11T11:10:25;6.03;;;3.00;;
24409;SDS011;12543;53.364;-1.504;2024-01-11T11:12:54;7.25;;;2.42;;
24409;SDS011;12543;53.364;-1.504;2024-01-11T11:15:24;3.92;;;2.42;;
24409;SDS011;12543;53.364;-1.504;2024-01-11T11:17:51;4.83;;;2.17;;
24409;SDS011;12543;53.364;-1.504;2024-01-11T11:20:19;5.68;;;2.20;;
24409;SDS011;12543;53.364;-1.504;2024-01-11T11:23:05;3.97;;;2.27;;
24409;SDS011;12543;53.364;-1.504;2024-01-11T11:25:33;5.05;;;2.42;;
24409;SDS011;12543;53.364;-1.504;2024-01-11T11:28:01;5.17;;;2.07;;
24409;SDS011;12543;53.364;-1.504;2024-01-11T11:30:37;5.35;;;1.98;;
24409;SDS011;12543;53.364;-1.504;2024-01-11T11:33:18;4.05;;;1.88;;
24409;SDS011;12543;53.364;-1.504;2024-01-11T11:35:47;6.97;;;2.28;;
24409;SDS011;12543;53.364;-1.504;2024-01-11T11:38:18;9.38;;;2.42;;
24409;SDS011;12543;53.364;-1.504;2024-01-11T11:40:47;6.70;;;1.80;;
24409;SDS011;12543;53.364;-1.504;2024-01-11T11:43:16;6.55;;;2.15;;
24409;SDS011;12543;53.364;-1.504;2024-01-11T11:45:46;6.82;;;2.13;;
24409;SDS011;12543;53.364;-1.504;2024-01-11T11:51:11;5.03;;;1.98;;
24409;SDS011;12543;53.364;-1.504;2024-01-11T11:53:44;4.43;;;2.17;;
24409;SDS011;12543;53.364;-1.504;2024-01-11T11:56:12;6.60;;;2.47;;
24409;SDS011;12543;53.364;-1.504;2024-01-11T11:58:44;13.07;;;3.30;;
24409;SDS011;12543;53.364;-1.504;2024-01-11T12:01:15;7.00;;;2.53;;
24409;SDS011;12543;53.364;-1.504;2024-01-11T12:03:44;3.63;;;2.33;;
24409;SDS011;12543;53.364;-1.504;2024-01-11T12:06:19;6.00;;;2.83;;
24409;SDS011;12543;53.364;-1.504;2024-01-11T12:08:50;7.35;;;2.33;;
24409;SDS011;12543;53.364;-1.504;2024-01-11T12:11:21;7.97;;;2.20;;
24409;SDS011;12543;53.364;-1.504;2024-01-11T12:13:50;4.68;;;2.13;;
24409;SDS011;12543;53.364;-1.504;2024-01-11T12:16:20;5.50;;;2.67;;
24409;SDS011;12543;53.364;-1.504;2024-01-11T12:18:48;4.70;;;1.98;;
24409;SDS011;12543;53.364;-1.504;2024-01-11T12:21:16;6.45;;;2.05;;
24409;SDS011;12543;53.364;-1.504;2024-01-11T12:23:44;8.52;;;2.50;;
24409;SDS011;12543;53.364;-1.504;2024-01-11T12:26:12;6.28;;;2.45;;
24409;SDS011;12543;53.364;-1.504;2024-01-11T12:28:41;5.53;;;2.30;;
24409;SDS011;12543;53.364;-1.504;2024-01-11T12:31:11;7.28;;;2.42;;
24409;SDS011;12543;53.364;-1.504;2024-01-11T12:33:40;8.18;;;3.20;;
24409;SDS011;12543;53.364;-1.504;2024-01-11T12:36:10;9.23;;;2.50;;
24409;SDS011;12543;53.364;-1.504;2024-01-11T12:38:38;4.85;;;2.35;;
24409;SDS011;12543;53.364;-1.504;2024-01-11T12:41:18;5.28;;;2.35;;
24409;SDS011;12543;53.364;-1.504;2024-01-11T12:43:46;5.30;;;2.38;;
24409;SDS011;12543;53.364;-1.504;2024-01-11T12:46:14;5.97;;;2.47;;
24409;SDS011;12543;53.364;-1.504;2024-01-11T12:48:41;6.70;;;2.25;;
24409;SDS011;12543;53.364;-1.504;2024-01-11T12:51:09;7.88;;;1.80;;
24409;SDS011;12543;53.364;-1.504;2024-01-11T12:53:46;4.68;;;1.83;;
24409;SDS011;12543;53.364;-1.504;2024-01-11T12:56:16;4.10;;;1.88;;
24409;SDS011;12543;53.364;-1.504;2024-01-11T12:58:43;5.53;;;1.85;;
24409;SDS011;12543;53.364;-1.504;2024-01-11T13:01:13;4.80;;;1.77;;
24409;SDS011;12543;53.364;-1.504;2024-01-11T13:03:43;7.85;;;2.05;;
24409;SDS011;12543;53.364;-1.504;2024-01-11T13:06:14;5.85;;;1.67;;
24409;SDS011;12543;53.364;-1.504;2024-01-11T13:08:42;5.68;;;1.67;;
24409;SDS011;12543;53.364;-1.504;2024-01-11T13:11:10;5.05;;;1.92;;
24409;SDS011;12543;53.364;-1.504;2024-01-11T13:13:40;6.97;;;1.92;;
24409;SDS011;12543;53.364;-1.504;2024-01-11T13:16:08;9.02;;;2.00;;
24409;SDS011;12543;53.364;-1.504;2024-01-11T13:18:39;8.02;;;1.90;;
24409;SDS011;12543;53.364;-1.504;2024-01-11T13:21:07;7.50;;;1.92;;
24409;SDS011;12543;53.364;-1.504;2024-01-11T13:23:37;5.65;;;1.95;;
24409;SDS011;12543;53.364;-1.504;2024-01-11T13:28:33;5.50;;;1.60;;
24409;SDS011;12543;53.364;-1.504;2024-01-11T13:31:00;5.15;;;2.08;;
24409;SDS011;12543;53.364;-1.504;2024-01-11T13:33:31;6.00;;;1.90;;
24409;SDS011;12543;53.364;-1.504;2024-01-11T13:35:59;5.72;;;1.95;;
24409;SDS011;12543;53.364;-1.504;2024-01-11T13:38:27;4.97;;;1.80;;
24409;SDS011;12543;53.364;-1.504;2024-01-11T13:40:55;7.47;;;2.00;;
24409;SDS011;12543;53.364;-1.504;2024-01-11T13:43:22;3.97;;;1.90;;
24409;SDS011;12543;53.364;-1.504;2024-01-11T13:45:50;5.25;;;1.65;;
24409;SDS011;12543;53.364;-1.504;2024-01-11T13:48:17;5.78;;;2.03;;
24409;SDS011;12543;53.364;-1.504;2024-01-11T13:50:45;6.03;;;1.80;;
24409;SDS011;12543;53.364;-1.504;2024-01-11T13:53:12;6.40;;;2.00;;
24409;SDS011;12543;53.364;-1.504;2024-01-11T13:55:40;5.23;;;1.67;;
24409;SDS011;12543;53.364;-1.504;2024-01-11T13:58:08;6.53;;;2.00;;
24409;SDS011;12543;53.364;-1.504;2024-01-11T14:00:35;3.40;;;1.85;;
24409;SDS011;12543;53.364;-1.504;2024-01-11T14:03:04;6.68;;;2.28;;
24409;SDS011;12543;53.364;-1.504;2024-01-11T14:05:33;5.65;;;2.03;;
24409;SDS011;12543;53.364;-1.504;2024-01-11T14:08:01;5.75;;;2.10;;
24409;SDS011;12543;53.364;-1.504;2024-01-11T14:10:32;6.53;;;1.90;;
24409;SDS011;12543;53.364;-1.504;2024-01-11T14:13:02;6.23;;;2.37;;
24409;SDS011;12543;53.364;-1.504;2024-01-11T14:15:33;6.43;;;2.25;;
24409;SDS011;12543;53.364;-1.504;2024-01-11T14:18:01;5.88;;;1.65;;
24409;SDS011;12543;53.364;-1.504;2024-01-11T14:20:30;6.60;;;2.00;;
24409;SDS011;12543;53.364;-1.504;2024-01-11T14:23:00;5.47;;;1.90;;
24409;SDS011;12543;53.364;-1.504;2024-01-11T14:25:28;5.65;;;1.90;;
24409;SDS011;12543;53.364;-1.504;2024-01-11T14:27:56;5.85;;;1.70;;
24409;SDS011;12543;53.364;-1.504;2024-01-11T14:30:24;6.93;;;1.83;;
24409;SDS011;12543;53.364;-1.504;2024-01-11T14:32:52;6.53;;;1.80;;
24409;SDS011;12543;53.364;-1.504;2024-01-11T14:35:20;6.13;;;1.77;;
24409;SDS011;12543;53.364;-1.504;2024-01-11T14:37:48;7.25;;;1.75;;
24409;SDS011;12543;53.364;-1.504;2024-01-11T14:40:15;4.30;;;1.63;;
24409;SDS011;12543;53.364;-1.504;2024-01-11T14:42:43;5.78;;;2.10;;
24409;SDS011;12543;53.364;-1.504;2024-01-11T14:45:10;5.07;;;1.67;;
24409;SDS011;12543;53.364;-1.504;2024-01-11T14:47:39;2.50;;;1.40;;
24409;SDS011;12543;53.364;-1.504;2024-01-11T14:50:07;5.90;;;1.58;;
24409;SDS011;12543;53.364;-1.504;2024-01-11T14:52:38;4.38;;;1.40;;
24409;SDS011;12543;53.364;-1.504;2024-01-11T14:55:06;7.45;;;1.77;;
24409;SDS011;12543;53.364;-1.504;2024-01-11T14:57:36;4.32;;;1.60;;